createdAt,value
2023-02-27T00:00:13.793Z,1009.4
2023-02-27T00:01:28.269Z,1009.4
2023-02-27T00:02:42.740Z,1009.4
2023-02-27T00:03:57.202Z,1009.4
2023-02-27T00:05:11.679Z,1009.4
2023-02-27T00:06:26.135Z,1009.4
2023-02-27T00:07:40.624Z,1009.4
2023-02-27T00:08:55.080Z,1009.4
2023-02-27T00:10:09.545Z,1009.4
2023-02-27T00:11:24.025Z,1009.3
2023-02-27T00:12:38.479Z,1009.3
2023-02-27T00:15:07.409Z,1009.3
2023-02-27T00:16:21.900Z,1009.3
2023-02-27T00:17:36.360Z,1009.3
2023-02-27T00:18:49.964Z,1009.4
2023-02-27T00:20:04.416Z,1009.4
2023-02-27T00:21:18.890Z,1009.4
2023-02-27T00:22:33.354Z,1009.4
2023-02-27T00:23:46.981Z,1009.4
2023-02-27T00:25:00.561Z,1009.3
2023-02-27T00:26:15.039Z,1009.3
2023-02-27T00:27:29.479Z,1009.3
2023-02-27T00:28:43.974Z,1009.3
2023-02-27T00:29:58.446Z,1009.3
2023-02-27T00:31:12.894Z,1009.3
2023-02-27T00:32:27.380Z,1009.4
2023-02-27T00:33:41.843Z,1009.4
2023-02-27T00:36:10.780Z,1009.4
2023-02-27T00:37:25.229Z,1009.4
2023-02-27T00:38:39.710Z,1009.4
2023-02-27T00:39:54.190Z,1009.5
2023-02-27T00:41:07.779Z,1009.5
2023-02-27T00:42:22.247Z,1009.5
2023-02-27T00:44:51.182Z,1009.5
2023-02-27T00:46:05.656Z,1009.5
2023-02-27T00:47:19.258Z,1009.5
2023-02-27T00:48:33.720Z,1009.5
2023-02-27T00:49:47.318Z,1009.5
2023-02-27T00:51:01.791Z,1009.4
2023-02-27T00:52:16.249Z,1009.4
2023-02-27T00:53:30.729Z,1009.4
2023-02-27T00:54:45.205Z,1009.5
2023-02-27T00:55:59.671Z,1009.4
2023-02-27T00:57:14.128Z,1009.4
2023-02-27T00:59:43.059Z,1009.4
2023-02-27T01:00:57.533Z,1009.4
2023-02-27T01:02:12.009Z,1009.3
2023-02-27T01:04:40.942Z,1009.3
2023-02-27T01:05:55.405Z,1009.3
2023-02-27T01:07:09.880Z,1009.3
2023-02-27T01:08:23.463Z,1009.3
2023-02-27T01:09:37.937Z,1009.3
2023-02-27T01:10:52.405Z,1009.3
2023-02-27T01:12:06.883Z,1009.3
2023-02-27T01:13:21.347Z,1009.3
2023-02-27T01:14:35.835Z,1009.3
2023-02-27T01:15:50.290Z,1009.3
2023-02-27T01:17:03.876Z,1009.3
2023-02-27T01:18:18.334Z,1009.3
2023-02-27T01:19:32.807Z,1009.3
2023-02-27T01:20:47.287Z,1009.3
2023-02-27T01:22:01.742Z,1009.3
2023-02-27T01:23:16.210Z,1009.3
2023-02-27T01:24:30.699Z,1009.3
2023-02-27T01:25:45.158Z,1009.3
2023-02-27T01:26:59.598Z,1009.3
2023-02-27T01:29:27.701Z,1009.3
2023-02-27T01:30:42.174Z,1009.3
2023-02-27T01:31:55.776Z,1009.3
2023-02-27T01:34:23.842Z,1009.3
2023-02-27T01:35:38.314Z,1009.3
2023-02-27T01:36:52.783Z,1009.3
2023-02-27T01:39:21.711Z,1009.4
2023-02-27T01:40:36.175Z,1009.4
2023-02-27T01:41:50.642Z,1009.4
2023-02-27T01:43:05.121Z,1009.4
2023-02-27T01:45:34.066Z,1009.4
2023-02-27T01:46:48.520Z,1009.4
2023-02-27T01:49:17.466Z,1009.4
2023-02-27T01:50:31.929Z,1009.4
2023-02-27T01:51:45.553Z,1009.4
2023-02-27T01:54:13.577Z,1009.4
2023-02-27T01:55:28.080Z,1009.4
2023-02-27T01:56:42.544Z,1009.4
2023-02-27T01:57:57.015Z,1009.4
2023-02-27T01:59:11.482Z,1009.4
2023-02-27T02:00:25.951Z,1009.4
2023-02-27T02:01:40.403Z,1009.4
2023-02-27T02:02:54.876Z,1009.4
2023-02-27T02:04:09.324Z,1009.4
2023-02-27T02:05:23.809Z,1009.4
2023-02-27T02:06:38.295Z,1009.4
2023-02-27T02:07:51.889Z,1009.4
2023-02-27T02:09:05.488Z,1009.4
2023-02-27T02:10:19.960Z,1009.4
2023-02-27T02:11:34.425Z,1009.4
2023-02-27T02:12:48.894Z,1009.5
2023-02-27T02:14:03.364Z,1009.5
2023-02-27T02:15:17.820Z,1009.5
2023-02-27T02:17:46.754Z,1009.5
2023-02-27T02:19:01.242Z,1009.5
2023-02-27T02:20:15.709Z,1009.4
2023-02-27T02:21:30.186Z,1009.4
2023-02-27T02:22:44.640Z,1009.5
2023-02-27T02:23:59.108Z,1009.5
2023-02-27T02:25:12.702Z,1009.5
2023-02-27T02:27:41.633Z,1009.5
2023-02-27T02:28:56.085Z,1009.5
2023-02-27T02:30:09.710Z,1009.5
2023-02-27T02:32:37.772Z,1009.5
2023-02-27T02:33:52.243Z,1009.5
2023-02-27T02:35:06.711Z,1009.4
2023-02-27T02:36:21.177Z,1009.4
2023-02-27T02:37:35.634Z,1009.4
2023-02-27T02:38:50.112Z,1009.4
2023-02-27T02:40:04.587Z,1009.4
2023-02-27T02:41:19.060Z,1009.4
2023-02-27T02:42:33.519Z,1009.4
2023-02-27T02:43:47.982Z,1009.4
2023-02-27T02:45:02.472Z,1009.4
2023-02-27T02:46:16.065Z,1009.4
2023-02-27T02:47:29.661Z,1009.4
2023-02-27T02:48:44.128Z,1009.4
2023-02-27T02:49:58.575Z,1009.4
2023-02-27T02:51:13.063Z,1009.4
2023-02-27T02:52:27.542Z,1009.4
2023-02-27T02:54:56.485Z,1009.4
2023-02-27T02:56:10.951Z,1009.4
2023-02-27T02:57:25.409Z,1009.5
2023-02-27T02:58:39.872Z,1009.5
2023-02-27T02:59:54.354Z,1009.4
2023-02-27T03:01:08.826Z,1009.5
2023-02-27T03:02:23.281Z,1009.5
2023-02-27T03:03:36.868Z,1009.4
2023-02-27T03:04:51.337Z,1009.4
2023-02-27T03:06:05.808Z,1009.4
2023-02-27T03:07:20.257Z,1009.4
2023-02-27T03:08:34.751Z,1009.4
2023-02-27T03:09:49.193Z,1009.5
2023-02-27T03:12:18.163Z,1009.5
2023-02-27T03:13:32.627Z,1009.5
2023-02-27T03:14:47.071Z,1009.5
2023-02-27T03:17:16.036Z,1009.5
2023-02-27T03:18:29.646Z,1009.5
2023-02-27T03:19:44.101Z,1009.5
2023-02-27T03:22:13.029Z,1009.5
2023-02-27T03:23:27.508Z,1009.6
2023-02-27T03:24:41.973Z,1009.6
2023-02-27T03:25:55.581Z,1009.5
2023-02-27T03:27:10.045Z,1009.5
2023-02-27T03:28:24.520Z,1009.5
2023-02-27T03:29:38.983Z,1009.6
2023-02-27T03:32:07.911Z,1009.6
2023-02-27T03:33:22.384Z,1009.6
2023-02-27T03:34:36.853Z,1009.6
2023-02-27T03:35:51.327Z,1009.6
2023-02-27T03:37:05.770Z,1009.6
2023-02-27T03:38:20.269Z,1009.6
2023-02-27T03:39:34.719Z,1009.6
2023-02-27T03:40:49.204Z,1009.7
2023-02-27T03:42:03.643Z,1009.7
2023-02-27T03:43:17.263Z,1009.7
2023-02-27T03:44:31.732Z,1009.7
2023-02-27T03:45:46.185Z,1009.7
2023-02-27T03:47:00.670Z,1009.7
2023-02-27T03:48:14.277Z,1009.7
2023-02-27T03:49:27.864Z,1009.7
2023-02-27T03:51:56.792Z,1009.7
2023-02-27T03:53:11.269Z,1009.7
2023-02-27T03:54:25.736Z,1009.8
2023-02-27T03:55:40.201Z,1009.8
2023-02-27T03:56:54.680Z,1009.8
2023-02-27T03:58:09.142Z,1009.8
2023-02-27T03:59:23.613Z,1009.8
2023-02-27T04:01:52.544Z,1009.8
2023-02-27T04:03:07.010Z,1009.9
2023-02-27T04:04:20.633Z,1009.9
2023-02-27T04:06:49.567Z,1009.9
2023-02-27T04:08:03.162Z,1009.9
2023-02-27T04:09:17.619Z,1010
2023-02-27T04:11:46.569Z,1010
2023-02-27T04:13:01.038Z,1010
2023-02-27T04:16:44.438Z,1010
2023-02-27T04:17:58.908Z,1010.1
2023-02-27T04:19:13.374Z,1010.1
2023-02-27T04:21:42.307Z,1010.1
2023-02-27T04:22:56.772Z,1010.1
2023-02-27T04:24:10.363Z,1010.1
2023-02-27T04:25:24.827Z,1010.1
2023-02-27T04:26:39.297Z,1010.2
2023-02-27T04:27:53.764Z,1010.2
2023-02-27T04:29:08.221Z,1010.2
2023-02-27T04:31:37.178Z,1010.2
2023-02-27T04:32:51.646Z,1010.2
2023-02-27T04:35:20.583Z,1010.2
2023-02-27T04:36:35.033Z,1010.2
2023-02-27T04:37:49.512Z,1010.2
2023-02-27T04:39:03.992Z,1010.3
2023-02-27T04:41:32.056Z,1010.2
2023-02-27T04:42:46.517Z,1010.2
2023-02-27T04:44:00.979Z,1010.3
2023-02-27T04:46:29.911Z,1010.3
2023-02-27T04:47:44.382Z,1010.3
2023-02-27T04:48:58.832Z,1010.3
2023-02-27T04:50:13.321Z,1010.3
2023-02-27T04:51:27.796Z,1010.3
2023-02-27T04:52:42.255Z,1010.3
2023-02-27T04:53:56.719Z,1010.3
2023-02-27T04:55:11.208Z,1010.3
2023-02-27T04:56:25.678Z,1010.3
2023-02-27T04:57:40.139Z,1010.3
2023-02-27T04:58:53.734Z,1010.3
2023-02-27T05:01:22.644Z,1010.3
2023-02-27T05:02:37.128Z,1010.3
2023-02-27T05:03:51.596Z,1010.3
2023-02-27T05:05:06.076Z,1010.3
2023-02-27T05:06:20.534Z,1010.3
2023-02-27T05:07:35.019Z,1010.3
2023-02-27T05:08:49.474Z,1010.3
2023-02-27T05:11:18.412Z,1010.3
2023-02-27T05:12:32.879Z,1010.2
2023-02-27T05:13:47.327Z,1010.2
2023-02-27T05:15:00.944Z,1010.2
2023-02-27T05:16:15.390Z,1010.2
2023-02-27T05:17:29.879Z,1010.2
2023-02-27T05:18:44.339Z,1010.2
2023-02-27T05:19:58.825Z,1010.3
2023-02-27T05:21:13.260Z,1010.3
2023-02-27T05:22:27.746Z,1010.3
2023-02-27T05:23:42.214Z,1010.3
2023-02-27T05:24:56.629Z,1010.4
2023-02-27T05:26:10.220Z,1010.4
2023-02-27T05:27:23.804Z,1010.4
2023-02-27T05:29:51.747Z,1010.4
2023-02-27T05:31:06.157Z,1010.4
2023-02-27T05:32:20.588Z,1010.5
2023-02-27T05:33:35.009Z,1010.4
2023-02-27T05:34:49.429Z,1010.4
2023-02-27T05:36:03.848Z,1010.5
2023-02-27T05:37:18.259Z,1010.5
2023-02-27T05:38:32.667Z,1010.5
2023-02-27T05:39:47.084Z,1010.5
2023-02-27T05:41:01.498Z,1010.5
2023-02-27T05:42:15.069Z,1010.5
2023-02-27T05:44:43.013Z,1010.5
2023-02-27T05:45:57.417Z,1010.5
2023-02-27T05:47:11.850Z,1010.5
2023-02-27T05:49:40.646Z,1010.5
2023-02-27T05:50:55.086Z,1010.5
2023-02-27T05:52:09.493Z,1010.5
2023-02-27T05:53:23.917Z,1010.5
2023-02-27T05:54:38.319Z,1010.5
2023-02-27T05:55:52.741Z,1010.5
2023-02-27T05:57:07.162Z,1010.5
2023-02-27T05:58:21.567Z,1010.5
2023-02-27T05:59:35.105Z,1010.5
2023-02-27T06:00:49.534Z,1010.5
2023-02-27T06:02:03.946Z,1010.5
2023-02-27T06:03:18.361Z,1010.5
2023-02-27T06:04:32.775Z,1010.5
2023-02-27T06:05:47.188Z,1010.5
2023-02-27T06:07:01.597Z,1010.6
2023-02-27T06:08:16.004Z,1010.5
2023-02-27T06:09:30.424Z,1010.6
2023-02-27T06:10:44.837Z,1010.6
2023-02-27T06:11:59.255Z,1010.6
2023-02-27T06:14:28.071Z,1010.6
2023-02-27T06:16:56.047Z,1010.8
2023-02-27T06:19:24.862Z,1010.8
2023-02-27T06:20:38.430Z,1010.8
2023-02-27T06:21:52.833Z,1010.8
2023-02-27T06:23:06.380Z,1010.8
2023-02-27T06:24:20.778Z,1010.8
2023-02-27T06:25:35.196Z,1010.8
2023-02-27T06:26:49.612Z,1010.8
2023-02-27T06:29:18.457Z,1010.8
2023-02-27T06:30:32.854Z,1010.8
2023-02-27T06:31:47.268Z,1010.8
2023-02-27T06:33:01.698Z,1010.8
2023-02-27T06:34:16.100Z,1010.9
2023-02-27T06:35:30.518Z,1010.9
2023-02-27T06:36:44.932Z,1010.9
2023-02-27T06:39:13.759Z,1010.9
2023-02-27T06:40:27.318Z,1010.9
2023-02-27T06:41:41.742Z,1010.9
2023-02-27T06:44:09.684Z,1011
2023-02-27T06:45:24.102Z,1011
2023-02-27T06:46:38.509Z,1011
2023-02-27T06:49:07.348Z,1011
2023-02-27T06:50:21.746Z,1011
2023-02-27T06:51:36.171Z,1011.1
2023-02-27T06:54:05.004Z,1011.1
2023-02-27T06:55:19.415Z,1011
2023-02-27T06:56:33.831Z,1011
2023-02-27T06:57:48.243Z,1011
2023-02-27T06:59:02.643Z,1011.1
2023-02-27T07:00:16.174Z,1011.1
2023-02-27T07:01:30.619Z,1011.1
2023-02-27T07:03:59.426Z,1011
2023-02-27T07:05:13.863Z,1011
2023-02-27T07:06:28.270Z,1011
2023-02-27T07:08:57.087Z,1011
2023-02-27T07:10:11.515Z,1011
2023-02-27T07:11:25.932Z,1011
2023-02-27T07:12:40.342Z,1011
2023-02-27T07:13:54.767Z,1011
2023-02-27T07:15:09.177Z,1011
2023-02-27T07:16:22.710Z,1011
2023-02-27T07:18:51.521Z,1011
2023-02-27T07:20:05.927Z,1011
2023-02-27T07:21:20.371Z,1011
2023-02-27T07:23:49.204Z,1011
2023-02-27T07:25:03.617Z,1011
2023-02-27T07:26:18.029Z,1011
2023-02-27T07:28:46.848Z,1011.1
2023-02-27T07:30:01.261Z,1011.1
2023-02-27T07:31:15.676Z,1011.1
2023-02-27T07:32:29.225Z,1011.1
2023-02-27T07:33:43.635Z,1011
2023-02-27T07:34:58.041Z,1011
2023-02-27T07:36:12.465Z,1011
2023-02-27T07:37:26.880Z,1011.1
2023-02-27T07:38:41.287Z,1011.1
2023-02-27T07:39:55.712Z,1011.1
2023-02-27T07:41:10.124Z,1011.1
2023-02-27T07:43:38.944Z,1011.1
2023-02-27T07:44:53.351Z,1011.1
2023-02-27T07:47:22.187Z,1011.1
2023-02-27T07:48:35.738Z,1011.1
2023-02-27T07:49:50.155Z,1011.1
2023-02-27T07:51:04.569Z,1011.1
2023-02-27T07:52:18.975Z,1011.1
2023-02-27T07:53:33.368Z,1011.1
2023-02-27T07:54:47.806Z,1011.1
2023-02-27T07:56:02.227Z,1011.1
2023-02-27T07:57:16.631Z,1011.1
2023-02-27T07:58:31.041Z,1011.2
2023-02-27T07:59:45.469Z,1011.2
2023-02-27T08:00:59.885Z,1011.2
2023-02-27T08:02:14.298Z,1011.2
2023-02-27T08:03:28.707Z,1011.1
2023-02-27T08:04:43.118Z,1011.1
2023-02-27T08:05:56.660Z,1011.2
2023-02-27T08:07:11.081Z,1011.2
2023-02-27T08:08:25.486Z,1011.2
2023-02-27T08:09:39.050Z,1011.2
2023-02-27T08:10:53.453Z,1011.3
2023-02-27T08:12:06.992Z,1011.3
2023-02-27T08:13:21.417Z,1011.3
2023-02-27T08:14:35.817Z,1011.3
2023-02-27T08:15:50.228Z,1011.3
2023-02-27T08:18:19.049Z,1011.4
2023-02-27T08:20:47.882Z,1011.4
2023-02-27T08:23:16.715Z,1011.4
2023-02-27T08:24:31.111Z,1011.4
2023-02-27T08:25:45.538Z,1011.4
2023-02-27T08:28:14.373Z,1011.4
2023-02-27T08:29:27.920Z,1011.4
2023-02-27T08:30:42.341Z,1011.4
2023-02-27T08:31:55.866Z,1011.4
2023-02-27T08:33:10.283Z,1011.4
2023-02-27T08:34:24.700Z,1011.4
2023-02-27T08:35:39.111Z,1011.4
2023-02-27T08:38:07.938Z,1011.4
2023-02-27T08:40:36.767Z,1011.5
2023-02-27T08:41:51.191Z,1011.5
2023-02-27T08:43:05.603Z,1011.5
2023-02-27T08:44:20.023Z,1011.5
2023-02-27T08:45:34.425Z,1011.5
2023-02-27T08:48:03.259Z,1011.5
2023-02-27T08:49:16.794Z,1011.5
2023-02-27T08:50:31.209Z,1011.5
2023-02-27T08:53:00.034Z,1011.5
2023-02-27T08:55:28.862Z,1011.5
2023-02-27T08:56:43.276Z,1011.5
2023-02-27T08:57:57.695Z,1011.5
2023-02-27T08:59:12.106Z,1011.5
2023-02-27T09:00:26.520Z,1011.5
2023-02-27T09:01:40.941Z,1011.5
2023-02-27T09:02:55.365Z,1011.6
2023-02-27T09:04:09.760Z,1011.6
2023-02-27T09:05:24.186Z,1011.6
2023-02-27T09:06:37.712Z,1011.6
2023-02-27T09:07:52.124Z,1011.6
2023-02-27T09:09:06.543Z,1011.6
2023-02-27T09:12:49.800Z,1011.6
2023-02-27T09:14:04.201Z,1011.6
2023-02-27T09:15:18.615Z,1011.6
2023-02-27T09:17:47.444Z,1011.6
2023-02-27T09:19:01.852Z,1011.6
2023-02-27T09:20:16.278Z,1011.6
2023-02-27T09:21:30.693Z,1011.6
2023-02-27T09:22:45.113Z,1011.6
2023-02-27T09:23:58.636Z,1011.6
2023-02-27T09:25:13.053Z,1011.6
2023-02-27T09:27:41.881Z,1011.5
2023-02-27T09:28:56.296Z,1011.5
2023-02-27T09:30:10.715Z,1011.6
2023-02-27T09:31:25.128Z,1011.6
2023-02-27T09:32:39.531Z,1011.5
2023-02-27T09:33:53.946Z,1011.5
2023-02-27T09:35:08.373Z,1011.6
2023-02-27T09:36:21.896Z,1011.6
2023-02-27T09:37:36.309Z,1011.6
2023-02-27T09:38:50.731Z,1011.6
2023-02-27T09:40:05.138Z,1011.7
2023-02-27T09:42:33.973Z,1011.7
2023-02-27T09:43:48.385Z,1011.7
2023-02-27T09:45:02.805Z,1011.7
2023-02-27T09:47:31.624Z,1011.7
2023-02-27T09:48:46.057Z,1011.7
2023-02-27T09:50:00.465Z,1011.7
2023-02-27T09:51:14.873Z,1011.7
2023-02-27T09:52:29.292Z,1011.7
2023-02-27T09:53:43.704Z,1011.7
2023-02-27T09:54:58.125Z,1011.7
2023-02-27T09:57:26.955Z,1011.7
2023-02-27T09:58:41.370Z,1011.7
2023-02-27T09:59:55.766Z,1011.7
2023-02-27T10:01:09.316Z,1011.7
2023-02-27T10:02:23.715Z,1011.8
2023-02-27T10:03:38.143Z,1011.8
2023-02-27T10:04:52.562Z,1011.8
2023-02-27T10:07:21.374Z,1011.8
2023-02-27T10:09:50.217Z,1011.8
2023-02-27T10:11:04.616Z,1011.8
2023-02-27T10:12:19.037Z,1011.8
2023-02-27T10:13:33.445Z,1011.8
2023-02-27T10:14:47.860Z,1011.8
2023-02-27T10:16:02.269Z,1011.8
2023-02-27T10:17:15.821Z,1011.8
2023-02-27T10:18:30.228Z,1011.9
2023-02-27T10:19:44.649Z,1011.8
2023-02-27T10:20:59.049Z,1011.8
2023-02-27T10:22:13.476Z,1011.8
2023-02-27T10:23:27.879Z,1011.9
2023-02-27T10:24:42.295Z,1011.9
2023-02-27T10:25:56.712Z,1011.9
2023-02-27T10:27:11.128Z,1011.9
2023-02-27T10:28:25.529Z,1011.9
2023-02-27T10:29:39.946Z,1011.9
2023-02-27T10:30:54.370Z,1011.9
2023-02-27T10:32:08.790Z,1011.9
2023-02-27T10:33:23.200Z,1011.9
2023-02-27T10:37:06.437Z,1011.9
2023-02-27T10:38:20.851Z,1011.9
2023-02-27T10:39:35.261Z,1011.9
2023-02-27T10:40:49.677Z,1011.8
2023-02-27T10:42:03.213Z,1011.9
2023-02-27T10:43:17.612Z,1011.8
2023-02-27T10:44:32.029Z,1011.8
2023-02-27T10:45:46.448Z,1011.8
2023-02-27T10:47:00.864Z,1011.8
2023-02-27T10:48:15.283Z,1011.8
2023-02-27T10:49:29.694Z,1011.9
2023-02-27T10:50:44.117Z,1011.9
2023-02-27T10:51:58.529Z,1011.9
2023-02-27T10:53:12.933Z,1011.9
2023-02-27T10:54:27.350Z,1011.9
2023-02-27T10:55:41.763Z,1011.9
2023-02-27T10:56:56.185Z,1011.9
2023-02-27T10:58:10.595Z,1011.8
2023-02-27T10:59:25.008Z,1011.9
2023-02-27T11:00:39.424Z,1011.9
2023-02-27T11:01:52.966Z,1011.9
2023-02-27T11:03:07.392Z,1011.9
2023-02-27T11:04:20.923Z,1011.9
2023-02-27T11:06:49.750Z,1011.9
2023-02-27T11:08:04.164Z,1011.8
2023-02-27T11:11:47.397Z,1011.8
2023-02-27T11:13:01.819Z,1011.8
2023-02-27T11:14:16.222Z,1011.8
2023-02-27T11:17:59.482Z,1011.8
2023-02-27T11:19:13.884Z,1011.7
2023-02-27T11:21:42.723Z,1011.7
2023-02-27T11:22:56.260Z,1011.7
2023-02-27T11:24:10.684Z,1011.7
2023-02-27T11:25:24.222Z,1011.7
2023-02-27T11:26:38.629Z,1011.6
2023-02-27T11:27:53.052Z,1011.6
2023-02-27T11:29:07.457Z,1011.6
2023-02-27T11:32:50.694Z,1011.6
2023-02-27T11:34:05.119Z,1011.6
2023-02-27T11:36:33.938Z,1011.6
2023-02-27T11:37:48.349Z,1011.6
2023-02-27T11:39:02.778Z,1011.6
2023-02-27T11:41:31.603Z,1011.5
2023-02-27T11:42:45.124Z,1011.5
2023-02-27T11:43:59.551Z,1011.5
2023-02-27T11:45:13.967Z,1011.5
2023-02-27T11:46:28.364Z,1011.5
2023-02-27T11:48:57.194Z,1011.5
2023-02-27T11:50:11.610Z,1011.4
2023-02-27T11:51:26.037Z,1011.5
2023-02-27T11:52:40.450Z,1011.5
2023-02-27T11:53:54.855Z,1011.5
2023-02-27T11:55:09.265Z,1011.5
2023-02-27T11:56:23.679Z,1011.5
2023-02-27T11:57:38.096Z,1011.5
2023-02-27T11:58:52.517Z,1011.5
2023-02-27T12:01:20.469Z,1011.5
2023-02-27T12:02:34.883Z,1011.5
2023-02-27T12:03:49.289Z,1011.4
2023-02-27T12:06:18.000Z,1011.5
2023-02-27T12:07:32.524Z,1011.5
2023-02-27T12:11:15.764Z,1011.5
2023-02-27T12:13:44.607Z,1011.5
2023-02-27T12:16:13.421Z,1011.5
2023-02-27T12:17:27.966Z,1011.4
2023-02-27T12:18:42.384Z,1011.4
2023-02-27T12:19:56.798Z,1011.4
2023-02-27T12:21:11.206Z,1011.4
2023-02-27T12:22:25.618Z,1011.4
2023-02-27T12:23:40.024Z,1011.4
2023-02-27T12:26:08.865Z,1011.4
2023-02-27T12:27:23.270Z,1011.4
2023-02-27T12:28:37.689Z,1011.4
2023-02-27T12:29:52.092Z,1011.4
2023-02-27T12:31:06.523Z,1011.4
2023-02-27T12:32:20.938Z,1011.4
2023-02-27T12:33:34.453Z,1011.4
2023-02-27T12:36:03.280Z,1011.4
2023-02-27T12:38:32.112Z,1011.4
2023-02-27T12:39:46.532Z,1011.4
2023-02-27T12:42:15.367Z,1011.4
2023-02-27T12:43:29.781Z,1011.4
2023-02-27T12:44:44.180Z,1011.4
2023-02-27T12:45:58.609Z,1011.4
2023-02-27T12:47:13.009Z,1011.4
2023-02-27T12:48:27.435Z,1011.4
2023-02-27T12:50:56.253Z,1011.4
2023-02-27T12:52:10.676Z,1011.4
2023-02-27T12:53:25.077Z,1011.4
2023-02-27T12:55:53.902Z,1011.4
2023-02-27T12:57:08.317Z,1011.3
2023-02-27T12:58:22.730Z,1011.3
2023-02-27T13:00:51.575Z,1011.3
2023-02-27T13:02:05.974Z,1011.4
2023-02-27T13:03:20.389Z,1011.4
2023-02-27T13:05:49.213Z,1011.4
2023-02-27T13:07:03.630Z,1011.4
2023-02-27T13:08:18.051Z,1011.4
2023-02-27T13:10:46.871Z,1011.3
2023-02-27T13:12:01.292Z,1011.4
2023-02-27T13:13:15.711Z,1011.4
2023-02-27T13:15:44.525Z,1011.4
2023-02-27T13:16:58.948Z,1011.4
2023-02-27T13:18:13.354Z,1011.4
2023-02-27T13:19:26.904Z,1011.4
2023-02-27T13:20:41.317Z,1011.4
2023-02-27T13:21:55.722Z,1011.4
2023-02-27T13:23:10.139Z,1011.3
2023-02-27T13:25:38.955Z,1011.3
2023-02-27T13:28:07.794Z,1011.3
2023-02-27T13:30:36.628Z,1011.3
2023-02-27T13:31:51.024Z,1011.3
2023-02-27T13:33:05.454Z,1011.3
2023-02-27T13:34:19.865Z,1011.3
2023-02-27T13:35:34.267Z,1011.3
2023-02-27T13:36:48.684Z,1011.3
2023-02-27T13:38:03.112Z,1011.3
2023-02-27T13:39:16.649Z,1011.3
2023-02-27T13:40:31.000Z,1011.3
2023-02-27T13:41:45.474Z,1011.2
2023-02-27T13:42:59.891Z,1011.3
2023-02-27T13:44:14.297Z,1011.3
2023-02-27T13:45:28.821Z,1011.3
2023-02-27T13:46:43.230Z,1011.3
2023-02-27T13:47:57.653Z,1011.3
2023-02-27T13:50:26.490Z,1011.3
2023-02-27T13:51:40.902Z,1011.3
2023-02-27T13:52:55.309Z,1011.3
2023-02-27T13:54:09.735Z,1011.3
2023-02-27T13:55:24.135Z,1011.3
2023-02-27T13:56:37.700Z,1011.3
2023-02-27T13:57:52.118Z,1011.3
2023-02-27T14:00:20.948Z,1011.3
2023-02-27T14:01:35.362Z,1011.3
2023-02-27T14:02:49.899Z,1011.3
2023-02-27T14:05:18.718Z,1011.3
2023-02-27T14:06:33.134Z,1011.3
2023-02-27T14:07:47.548Z,1011.3
2023-02-27T14:09:01.965Z,1011.3
2023-02-27T14:10:16.381Z,1011.3
2023-02-27T14:11:30.780Z,1011.3
2023-02-27T14:12:44.349Z,1011.3
2023-02-27T14:15:12.301Z,1011.3
2023-02-27T14:16:26.000Z,1011.4
2023-02-27T14:17:41.120Z,1011.4
2023-02-27T14:20:09.942Z,1011.4
2023-02-27T14:21:24.362Z,1011.4
2023-02-27T14:22:38.776Z,1011.4
2023-02-27T14:25:07.613Z,1011.4
2023-02-27T14:26:22.014Z,1011.5
2023-02-27T14:27:36.425Z,1011.5
2023-02-27T14:30:05.261Z,1011.5
2023-02-27T14:32:34.097Z,1011.5
2023-02-27T14:37:30.870Z,1011.5
2023-02-27T14:39:59.690Z,1011.5
2023-02-27T14:41:14.122Z,1011.5
2023-02-27T14:42:28.522Z,1011.5
2023-02-27T14:43:42.945Z,1011.5
2023-02-27T14:44:57.347Z,1011.5
2023-02-27T14:46:11.773Z,1011.5
2023-02-27T14:47:26.179Z,1011.5
2023-02-27T14:48:40.591Z,1011.5
2023-02-27T14:49:55.016Z,1011.6
2023-02-27T14:51:08.542Z,1011.6
2023-02-27T14:52:22.968Z,1011.6
2023-02-27T14:54:51.797Z,1011.6
2023-02-27T14:56:06.202Z,1011.6
2023-02-27T14:57:20.623Z,1011.6
2023-02-27T14:58:35.031Z,1011.6
2023-02-27T14:59:49.456Z,1011.6
2023-02-27T15:01:03.872Z,1011.6
2023-02-27T15:02:18.291Z,1011.6
2023-02-27T15:04:47.103Z,1011.6
2023-02-27T15:06:01.521Z,1011.6
2023-02-27T15:07:15.055Z,1011.6
2023-02-27T15:09:43.889Z,1011.6
2023-02-27T15:10:58.307Z,1011.6
2023-02-27T15:12:12.707Z,1011.6
2023-02-27T15:13:27.133Z,1011.6
2023-02-27T15:14:41.544Z,1011.6
2023-02-27T15:15:55.957Z,1011.6
2023-02-27T15:17:10.365Z,1011.6
2023-02-27T15:19:39.212Z,1011.6
2023-02-27T15:20:53.622Z,1011.6
2023-02-27T15:22:08.028Z,1011.7
2023-02-27T15:24:35.974Z,1011.7
2023-02-27T15:27:04.801Z,1011.7
2023-02-27T15:29:33.644Z,1011.8
2023-02-27T15:30:48.062Z,1011.8
2023-02-27T15:32:02.471Z,1011.8
2023-02-27T15:34:31.291Z,1011.8
2023-02-27T15:35:45.709Z,1011.8
2023-02-27T15:37:00.127Z,1011.8
2023-02-27T15:39:28.958Z,1011.9
2023-02-27T15:40:42.499Z,1011.8
2023-02-27T15:41:56.896Z,1011.9
2023-02-27T15:43:11.328Z,1011.9
2023-02-27T15:44:25.726Z,1011.9
2023-02-27T15:45:40.144Z,1012
2023-02-27T15:46:54.557Z,1011.9
2023-02-27T15:49:23.384Z,1011.9
2023-02-27T15:50:37.814Z,1012
2023-02-27T15:51:52.211Z,1011.9
2023-02-27T15:54:21.042Z,1012
2023-02-27T15:56:49.884Z,1012
2023-02-27T15:59:18.830Z,1012
2023-02-27T16:00:33.247Z,1012
2023-02-27T16:01:47.666Z,1012
2023-02-27T16:04:16.474Z,1012
2023-02-27T16:05:30.896Z,1012.1
2023-02-27T16:06:45.315Z,1012.1
2023-02-27T16:10:28.557Z,1012.1
2023-02-27T16:11:42.976Z,1012.1
2023-02-27T16:12:57.378Z,1012.1
2023-02-27T16:14:11.795Z,1012.2
2023-02-27T16:15:26.201Z,1012.2
2023-02-27T16:16:40.620Z,1012.1
2023-02-27T16:19:09.453Z,1012.2
2023-02-27T16:20:23.874Z,1012.2
2023-02-27T16:21:38.282Z,1012.2
2023-02-27T16:22:52.691Z,1012.2
2023-02-27T16:24:07.117Z,1012.2
2023-02-27T16:25:21.537Z,1012.2
2023-02-27T16:30:19.192Z,1012.3
2023-02-27T16:31:32.713Z,1012.3
2023-02-27T16:32:47.132Z,1012.3
2023-02-27T16:34:01.554Z,1012.3
2023-02-27T16:35:15.970Z,1012.4
2023-02-27T16:36:30.387Z,1012.4
2023-02-27T16:37:44.790Z,1012.4
2023-02-27T16:38:59.210Z,1012.4
2023-02-27T16:40:13.624Z,1012.4
2023-02-27T16:43:56.867Z,1012.5
2023-02-27T16:45:11.274Z,1012.5
2023-02-27T16:48:54.503Z,1012.5
2023-02-27T16:50:08.932Z,1012.6
2023-02-27T16:51:23.344Z,1012.6
2023-02-27T16:53:52.170Z,1012.6
2023-02-27T16:57:35.422Z,1012.6
2023-02-27T17:00:04.258Z,1012.6
2023-02-27T17:01:17.784Z,1012.6
2023-02-27T17:02:32.203Z,1012.6
2023-02-27T17:05:01.034Z,1012.6
2023-02-27T17:06:15.445Z,1012.6
2023-02-27T17:07:29.851Z,1012.6
2023-02-27T17:08:44.261Z,1012.6
2023-02-27T17:09:58.689Z,1012.6
2023-02-27T17:11:13.099Z,1012.6
2023-02-27T17:13:41.938Z,1012.7
2023-02-27T17:14:56.359Z,1012.7
2023-02-27T17:16:10.763Z,1012.7
2023-02-27T17:18:39.665Z,1012.7
2023-02-27T17:19:54.119Z,1012.7
2023-02-27T17:21:08.590Z,1012.8
2023-02-27T17:22:23.066Z,1012.8
2023-02-27T17:23:37.531Z,1012.8
2023-02-27T17:24:51.119Z,1012.8
2023-02-27T17:26:05.590Z,1012.8
2023-02-27T17:28:34.515Z,1012.8
2023-02-27T17:29:48.992Z,1012.8
2023-02-27T17:31:03.464Z,1012.8
2023-02-27T17:32:17.929Z,1012.9
2023-02-27T17:33:32.392Z,1012.9
2023-02-27T17:34:46.868Z,1012.9
2023-02-27T17:36:01.333Z,1012.9
2023-02-27T17:38:30.278Z,1012.9
2023-02-27T17:39:44.743Z,1012.9
2023-02-27T17:40:59.214Z,1012.9
2023-02-27T17:43:28.144Z,1012.9
2023-02-27T17:44:42.609Z,1012.9
2023-02-27T17:45:57.088Z,1013
2023-02-27T17:48:26.019Z,1012.9
2023-02-27T17:49:39.601Z,1013
2023-02-27T17:50:54.077Z,1013
2023-02-27T17:52:08.547Z,1012.9
2023-02-27T17:53:23.015Z,1013
2023-02-27T17:54:37.477Z,1013
2023-02-27T17:55:51.961Z,1013
2023-02-27T17:57:05.536Z,1013
2023-02-27T17:58:20.002Z,1013
2023-02-27T17:59:34.477Z,1013
2023-02-27T18:00:48.940Z,1013
2023-02-27T18:03:17.890Z,1013
2023-02-27T18:04:32.347Z,1013
2023-02-27T18:05:46.820Z,1013
2023-02-27T18:08:15.761Z,1013
2023-02-27T18:09:30.227Z,1013
2023-02-27T18:11:59.167Z,1013
2023-02-27T18:13:13.636Z,1013
2023-02-27T18:14:28.103Z,1013
2023-02-27T18:15:41.696Z,1013
2023-02-27T18:16:56.155Z,1013
2023-02-27T18:18:10.631Z,1013
2023-02-27T18:19:25.102Z,1013
2023-02-27T18:20:39.550Z,1013
2023-02-27T18:23:08.502Z,1012.9
2023-02-27T18:24:22.979Z,1013
2023-02-27T18:25:37.441Z,1013
2023-02-27T18:28:06.377Z,1012.9
2023-02-27T18:29:20.852Z,1013
2023-02-27T18:30:35.316Z,1013
2023-02-27T18:33:03.382Z,1013
2023-02-27T18:34:17.842Z,1013
2023-02-27T18:35:32.294Z,1013
2023-02-27T18:36:46.781Z,1013
2023-02-27T18:38:01.240Z,1013
2023-02-27T18:39:15.727Z,1013
2023-02-27T18:40:30.177Z,1013
2023-02-27T18:41:44.661Z,1013
2023-02-27T18:42:59.131Z,1013